Time;durP1;ratioP1;P1;durP2;ratioP2;P2;SDS_P1;SDS_P2;PMS_P1;PMS_P2;Temp;Humidity;BMP_temperature;BMP_pressure;BME280_temperature;BME280_humidity;BME280_pressure;Samples;Min_cycle;Max_cycle;Signal;HPM_P1;HPM_P2
2022/10/20 00:00:31;;;;;;;5.47;1.95;;;;;;;;;;5021788;28;20120;-65
2022/10/20 00:02:59;;;;;;;5.32;2.33;;;;;;;;;;5006943;28;20119;-66
2022/10/20 00:05:25;;;;;;;3.95;2.13;;;;;;;;;;5000666;28;20053;-65
2022/10/20 00:07:53;;;;;;;3.70;1.73;;;;;;;;;;5021342;28;20061;-66
2022/10/20 00:10:20;;;;;;;4.45;1.88;;;;;;;;;;4999812;28;20049;-66
2022/10/20 00:12:46;;;;;;;10.13;2.17;;;;;;;;;;5022053;28;20136;-66
2022/10/20 00:15:13;;;;;;;5.25;2.20;;;;;;;;;;5000638;28;20053;-65
2022/10/20 00:17:40;;;;;;;7.93;1.90;;;;;;;;;;5004958;28;20053;-65
2022/10/20 00:20:09;;;;;;;5.35;1.95;;;;;;;;;;5000564;28;20196;-65
2022/10/20 00:22:35;;;;;;;;;;;;;;;;;;5005708;28;20068;-65
2022/10/20 00:25:01;;;;;;;4.65;1.95;;;;;;;;;;5016214;28;20040;-65
2022/10/20 00:27:29;;;;;;;4.78;2.03;;;;;;;;;;5021190;28;20053;-65
2022/10/20 00:29:56;;;;;;;6.03;2.40;;;;;;;;;;5000103;28;20053;-65
2022/10/20 00:32:22;;;;;;;4.82;2.20;;;;;;;;;;5021683;28;20305;-65
2022/10/20 00:34:49;;;;;;;4.40;1.98;;;;;;;;;;5000452;28;20050;-65
2022/10/20 00:37:17;;;;;;;4.65;1.90;;;;;;;;;;5005522;28;20054;-65
2022/10/20 00:39:44;;;;;;;6.50;2.17;;;;;;;;;;5001086;28;20103;-65
2022/10/20 00:42:11;;;;;;;5.78;2.10;;;;;;;;;;4983508;28;20061;-65
2022/10/20 00:44:55;;;;;;;3.88;2.05;;;;;;;;;;4998202;28;20050;-65
2022/10/20 00:47:28;;;;;;;5.10;2.30;;;;;;;;;;4985874;28;20053;-66
2022/10/20 00:49:56;;;;;;;5.60;2.30;;;;;;;;;;4986170;28;20061;-65
2022/10/20 00:52:24;;;;;;;4.93;2.20;;;;;;;;;;4981577;28;20061;-65
2022/10/20 00:54:51;;;;;;;3.20;1.77;;;;;;;;;;4987945;28;20061;-66
2022/10/20 00:57:18;;;;;;;5.13;2.35;;;;;;;;;;5003306;28;20138;-67
2022/10/20 00:59:45;;;;;;;6.30;2.28;;;;;;;;;;5000818;28;20054;-65
2022/10/20 01:02:12;;;;;;;7.28;2.15;;;;;;;;;;4985498;28;20073;-65
2022/10/20 01:04:38;;;;;;;7.75;2.20;;;;;;;;;;4985541;28;20116;-65
2022/10/20 01:07:07;;;;;;;9.05;2.55;;;;;;;;;;4980585;28;20077;-66
2022/10/20 01:09:37;;;;;;;5.05;2.30;;;;;;;;;;5015672;28;20061;-65
2022/10/20 01:12:10;;;;;;;7.72;2.13;;;;;;;;;;5001482;28;20061;-65
2022/10/20 01:14:40;;;;;;;6.95;2.83;;;;;;;;;;4989182;28;20104;-66
2022/10/20 01:17:22;;;;;;;6.40;2.10;;;;;;;;;;4997451;28;20062;-65
2022/10/20 01:20:06;;;;;;;9.32;2.55;;;;;;;;;;4986203;28;20050;-66
2022/10/20 01:22:39;;;;;;;5.65;2.30;;;;;;;;;;4998164;28;20055;-66
2022/10/20 01:25:17;;;;;;;4.78;2.22;;;;;;;;;;5005022;28;20061;-66
2022/10/20 01:27:46;;;;;;;5.23;1.93;;;;;;;;;;5015997;28;20057;-66
2022/10/20 01:30:14;;;;;;;5.05;2.35;;;;;;;;;;5021372;28;20066;-66
2022/10/20 01:32:49;;;;;;;5.47;2.15;;;;;;;;;;5015953;28;20065;-66
2022/10/20 01:35:21;;;;;;;6.55;2.47;;;;;;;;;;5020508;28;20042;-65
2022/10/20 01:37:52;;;;;;;9.80;2.88;;;;;;;;;;4998286;28;20057;-65
2022/10/20 01:40:22;;;;;;;6.68;2.40;;;;;;;;;;4995141;28;20089;-65
2022/10/20 01:42:52;;;;;;;6.75;2.70;;;;;;;;;;4973661;28;20074;-65
2022/10/20 01:45:21;;;;;;;6.38;2.25;;;;;;;;;;4992035;28;20057;-65
2022/10/20 01:47:48;;;;;;;5.38;2.33;;;;;;;;;;4999213;28;20054;-66
2022/10/20 01:50:16;;;;;;;8.70;2.78;;;;;;;;;;5007956;28;20060;-65
2022/10/20 01:52:43;;;;;;;4.90;2.13;;;;;;;;;;5019648;28;20057;-66
2022/10/20 01:55:11;;;;;;;6.63;2.22;;;;;;;;;;5007614;28;20072;-65
2022/10/20 01:57:45;;;;;;;7.63;2.28;;;;;;;;;;5023890;28;20058;-65
2022/10/20 02:00:15;;;;;;;7.70;2.90;;;;;;;;;;5006461;28;20050;-65
2022/10/20 02:02:51;;;;;;;5.13;2.25;;;;;;;;;;5007485;28;20064;-65
2022/10/20 02:05:22;;;;;;;4.38;1.88;;;;;;;;;;5005184;28;20086;-65
2022/10/20 02:07:49;;;;;;;5.97;2.90;;;;;;;;;;5023394;28;20053;-65
2022/10/20 02:10:18;;;;;;;7.28;2.65;;;;;;;;;;5017971;28;20061;-65
2022/10/20 02:12:47;;;;;;;6.57;2.88;;;;;;;;;;5007487;28;20103;-66
2022/10/20 02:15:17;;;;;;;5.60;2.50;;;;;;;;;;5018606;28;20057;-65
2022/10/20 02:17:46;;;;;;;6.65;2.70;;;;;;;;;;5006834;28;20086;-65
2022/10/20 02:20:14;;;;;;;6.53;2.42;;;;;;;;;;5018133;28;20064;-66
2022/10/20 02:22:41;;;;;;;8.57;2.93;;;;;;;;;;5007434;28;20116;-65
2022/10/20 02:25:10;;;;;;;5.80;2.38;;;;;;;;;;4982698;28;20057;-65
2022/10/20 02:27:39;;;;;;;5.95;2.65;;;;;;;;;;5022601;28;20049;-65
2022/10/20 02:30:05;;;;;;;;;;;;;;;;;;5017583;28;20163;-65
2022/10/20 02:32:33;;;;;;;5.65;2.40;;;;;;;;;;5023597;28;19925;-65
2022/10/20 02:35:00;;;;;;;7.88;3.08;;;;;;;;;;5001192;28;20109;-65
2022/10/20 02:37:27;;;;;;;6.07;2.15;;;;;;;;;;5006793;28;20042;-65
2022/10/20 02:39:53;;;;;;;6.78;2.60;;;;;;;;;;5000497;28;20080;-65
2022/10/20 02:42:20;;;;;;;8.88;3.25;;;;;;;;;;5019914;28;20053;-66
2022/10/20 02:44:46;;;;;;;7.00;3.05;;;;;;;;;;5017846;28;20042;-65
2022/10/20 02:47:13;;;;;;;8.27;3.13;;;;;;;;;;5023216;28;20074;-65
2022/10/20 02:49:41;;;;;;;6.40;2.72;;;;;;;;;;5037808;28;20061;-65
2022/10/20 02:52:08;;;;;;;5.17;2.70;;;;;;;;;;5001414;28;20103;-65
2022/10/20 02:54:35;;;;;;;7.78;3.13;;;;;;;;;;4987461;28;20313;-65
2022/10/20 02:57:03;;;;;;;7.57;3.10;;;;;;;;;;5001958;28;20077;-65
2022/10/20 02:59:29;;;;;;;4.55;2.38;;;;;;;;;;5023230;28;20073;-65
2022/10/20 03:01:56;;;;;;;6.00;2.50;;;;;;;;;;5018349;28;20061;-65
2022/10/20 03:04:23;;;;;;;5.68;2.70;;;;;;;;;;5007095;28;20050;-65
2022/10/20 03:06:51;;;;;;;6.45;2.55;;;;;;;;;;5001184;28;20073;-65
2022/10/20 03:09:17;;;;;;;8.68;2.97;;;;;;;;;;5023291;28;20057;-65
2022/10/20 03:11:44;;;;;;;5.68;2.50;;;;;;;;;;5017609;28;20058;-65
2022/10/20 03:14:11;;;;;;;4.75;2.15;;;;;;;;;;5023934;28;20068;-66
2022/10/20 03:16:38;;;;;;;7.38;2.85;;;;;;;;;;5019663;28;20050;-65
2022/10/20 03:19:04;;;;;;;9.80;2.75;;;;;;;;;;5025586;28;20062;-65
2022/10/20 03:21:31;;;;;;;9.30;2.60;;;;;;;;;;5003868;28;20045;-66
2022/10/20 03:23:59;;;;;;;7.90;2.78;;;;;;;;;;5009253;28;20053;-66
2022/10/20 03:26:26;;;;;;;7.15;2.50;;;;;;;;;;5001028;28;20109;-65
2022/10/20 03:28:52;;;;;;;6.82;3.08;;;;;;;;;;5005583;28;20056;-65
2022/10/20 03:31:19;;;;;;;5.10;2.50;;;;;;;;;;5019834;28;20061;-65
2022/10/20 03:33:46;;;;;;;5.57;2.88;;;;;;;;;;5020394;28;20061;-65
2022/10/20 03:36:13;;;;;;;7.10;2.85;;;;;;;;;;4998267;28;20058;-66
2022/10/20 03:38:40;;;;;;;7.20;2.75;;;;;;;;;;5005292;28;20077;-65
2022/10/20 03:41:08;;;;;;;5.43;2.40;;;;;;;;;;5021819;28;20060;-65
2022/10/20 03:43:35;;;;;;;6.00;2.67;;;;;;;;;;5000985;28;20062;-65
2022/10/20 03:46:03;;;;;;;7.72;2.58;;;;;;;;;;5023568;28;20061;-65
2022/10/20 03:48:29;;;;;;;8.10;2.87;;;;;;;;;;5017527;28;20056;-65
2022/10/20 03:50:56;;;;;;;8.23;2.58;;;;;;;;;;5022500;28;20104;-65
2022/10/20 03:53:23;;;;;;;5.70;2.72;;;;;;;;;;5000470;28;20062;-65
2022/10/20 03:55:49;;;;;;;6.82;2.63;;;;;;;;;;5022111;28;20054;-65
2022/10/20 03:58:18;;;;;;;7.68;2.65;;;;;;;;;;4999694;28;20123;-65
2022/10/20 04:00:45;;;;;;;5.70;2.78;;;;;;;;;;5021844;28;20137;-65
2022/10/20 04:03:11;;;;;;;7.05;2.75;;;;;;;;;;5000051;28;20061;-65
2022/10/20 04:05:38;;;;;;;7.70;2.85;;;;;;;;;;5022016;28;20120;-65
2022/10/20 04:08:05;;;;;;;8.15;3.05;;;;;;;;;;4999686;28;20054;-65
2022/10/20 04:10:32;;;;;;;6.63;2.88;;;;;;;;;;5004649;28;20069;-65
2022/10/20 04:12:58;;;;;;;7.65;3.05;;;;;;;;;;5017115;28;20065;-65
2022/10/20 04:15:26;;;;;;;7.88;2.63;;;;;;;;;;5021317;28;20070;-65
2022/10/20 04:17:53;;;;;;;6.43;2.70;;;;;;;;;;5021263;28;20072;-65
2022/10/20 04:20:20;;;;;;;7.53;3.10;;;;;;;;;;5016219;28;20081;-65
2022/10/20 04:22:46;;;;;;;11.32;3.22;;;;;;;;;;5005075;28;20057;-65
2022/10/20 04:25:13;;;;;;;7.57;2.92;;;;;;;;;;5015739;28;20054;-65
2022/10/20 04:27:40;;;;;;;6.63;3.03;;;;;;;;;;5020648;28;20061;-65
2022/10/20 04:30:08;;;;;;;9.02;3.28;;;;;;;;;;4999281;28;20085;-66
2022/10/20 04:32:35;;;;;;;6.53;2.72;;;;;;;;;;5021858;28;20119;-65
2022/10/20 04:35:02;;;;;;;11.50;2.63;;;;;;;;;;4999884;28;20148;-65
2022/10/20 04:37:30;;;;;;;7.75;3.05;;;;;;;;;;5004849;28;20060;-66
2022/10/20 04:39:57;;;;;;;5.90;2.90;;;;;;;;;;4999863;28;20045;-65
2022/10/20 04:42:24;;;;;;;7.35;2.83;;;;;;;;;;5021989;28;20046;-65
2022/10/20 04:44:50;;;;;;;7.55;2.83;;;;;;;;;;5000283;28;20058;-65
2022/10/20 04:47:17;;;;;;;6.35;2.78;;;;;;;;;;5001229;28;20089;-65
2022/10/20 04:49:45;;;;;;;7.18;3.25;;;;;;;;;;4994034;28;20058;-65
2022/10/20 04:52:12;;;;;;;6.43;3.10;;;;;;;;;;4999116;28;20053;-65
2022/10/20 04:54:38;;;;;;;7.50;3.22;;;;;;;;;;4978337;28;20097;-66
2022/10/20 04:57:05;;;;;;;8.60;3.10;;;;;;;;;;4997927;28;20113;-66
2022/10/20 04:59:32;;;;;;;7.93;2.92;;;;;;;;;;4985808;28;20086;-65
2022/10/20 05:01:58;;;;;;;5.80;2.90;;;;;;;;;;5011361;28;20082;-65
2022/10/20 05:04:25;;;;;;;6.68;2.95;;;;;;;;;;4999197;28;20059;-65
2022/10/20 05:06:53;;;;;;;10.13;3.15;;;;;;;;;;4974751;28;20149;-65
2022/10/20 05:09:20;;;;;;;7.00;2.97;;;;;;;;;;4982978;28;20062;-65
2022/10/20 05:11:46;;;;;;;8.07;2.97;;;;;;;;;;4993713;28;20078;-65
2022/10/20 05:14:13;;;;;;;6.75;2.50;;;;;;;;;;4999229;28;20059;-65
2022/10/20 05:16:40;;;;;;;9.07;3.13;;;;;;;;;;4976681;28;20058;-65
2022/10/20 05:19:07;;;;;;;9.25;3.20;;;;;;;;;;4999236;28;20050;-65
2022/10/20 05:21:33;;;;;;;8.30;3.05;;;;;;;;;;4975771;28;20047;-65
2022/10/20 05:24:02;;;;;;;6.20;2.67;;;;;;;;;;5000792;28;20182;-66
2022/10/20 05:26:33;;;;;;;9.15;3.08;;;;;;;;;;4996369;28;20141;-65
2022/10/20 05:28:59;;;;;;;6.65;3.05;;;;;;;;;;5001566;28;20057;-65
2022/10/20 05:31:26;;;;;;;9.27;3.17;;;;;;;;;;4978882;28;20046;-65
2022/10/20 05:33:54;;;;;;;9.50;3.30;;;;;;;;;;5002562;28;20054;-65
2022/10/20 05:36:22;;;;;;;7.03;2.90;;;;;;;;;;4996214;28;20050;-65
2022/10/20 05:38:48;;;;;;;6.55;2.88;;;;;;;;;;4986918;28;20050;-65
2022/10/20 05:41:17;;;;;;;6.28;2.97;;;;;;;;;;4989142;28;20089;-66
2022/10/20 05:43:47;;;;;;;6.68;3.10;;;;;;;;;;4982876;28;20066;-65
2022/10/20 05:46:14;;;;;;;7.05;3.15;;;;;;;;;;5003763;28;20058;-65
2022/10/20 05:48:40;;;;;;;7.20;2.92;;;;;;;;;;4981249;28;20133;-66
2022/10/20 05:51:08;;;;;;;6.50;3.17;;;;;;;;;;5004806;28;20069;-66
2022/10/20 05:53:34;;;;;;;10.60;3.90;;;;;;;;;;4988943;28;20082;-66
2022/10/20 05:56:04;;;;;;;9.75;3.38;;;;;;;;;;5005497;28;20058;-66
2022/10/20 05:58:32;;;;;;;6.63;3.30;;;;;;;;;;4995147;28;20058;-66
2022/10/20 06:01:06;;;;;;;6.55;2.88;;;;;;;;;;5007948;28;20046;-66
2022/10/20 06:03:32;;;;;;;6.35;3.25;;;;;;;;;;5002403;28;20064;-65
2022/10/20 06:06:00;;;;;;;14.05;3.40;;;;;;;;;;5024587;28;20057;-65
2022/10/20 06:08:28;;;;;;;8.95;3.13;;;;;;;;;;5020251;28;20093;-66
2022/10/20 06:10:55;;;;;;;7.43;3.10;;;;;;;;;;5007890;28;20046;-66
2022/10/20 06:13:21;;;;;;;8.57;3.72;;;;;;;;;;5012476;28;20150;-66
2022/10/20 06:15:49;;;;;;;6.53;3.20;;;;;;;;;;5012886;28;20057;-66
2022/10/20 06:18:16;;;;;;;7.28;3.90;;;;;;;;;;5014054;28;20046;-65
2022/10/20 06:20:43;;;;;;;7.97;4.00;;;;;;;;;;4988047;28;20054;-66
2022/10/20 06:23:09;;;;;;;7.80;3.80;;;;;;;;;;4983491;28;20046;-66
2022/10/20 06:25:36;;;;;;;17.20;3.78;;;;;;;;;;5023464;28;20053;-66
2022/10/20 06:28:03;;;;;;;8.05;3.40;;;;;;;;;;5006165;28;20061;-65
2022/10/20 06:30:30;;;;;;;6.68;2.90;;;;;;;;;;4992748;28;20070;-65
2022/10/20 06:32:58;;;;;;;7.45;3.55;;;;;;;;;;5023701;28;20073;-65
2022/10/20 06:35:25;;;;;;;7.43;2.95;;;;;;;;;;5017238;28;20089;-67
2022/10/20 06:37:51;;;;;;;7.75;2.97;;;;;;;;;;5040891;28;20073;-65
2022/10/20 06:40:18;;;;;;;9.10;3.83;;;;;;;;;;5007115;28;20053;-66
2022/10/20 06:42:44;;;;;;;6.18;2.97;;;;;;;;;;5007486;28;20060;-66
2022/10/20 06:45:11;;;;;;;8.13;3.42;;;;;;;;;;4990480;28;20062;-66
2022/10/20 06:47:38;;;;;;;6.43;3.28;;;;;;;;;;5014439;28;20053;-66
2022/10/20 06:50:07;;;;;;;7.50;3.20;;;;;;;;;;5008040;28;20046;-66
2022/10/20 06:52:33;;;;;;;6.93;3.20;;;;;;;;;;4996415;28;20108;-66
2022/10/20 06:55:00;;;;;;;9.10;3.85;;;;;;;;;;5011132;28;20149;-65
2022/10/20 06:57:27;;;;;;;7.28;3.03;;;;;;;;;;5005137;28;20050;-66
2022/10/20 06:59:53;;;;;;;7.82;2.90;;;;;;;;;;4997072;28;20105;-66
2022/10/20 07:02:20;;;;;;;7.10;3.25;;;;;;;;;;4986584;28;20058;-66
2022/10/20 07:04:49;;;;;;;9.80;3.95;;;;;;;;;;5012583;28;20097;-66
2022/10/20 07:07:16;;;;;;;;;;;;;;;;;;5007068;28;20305;-66
2022/10/20 07:09:44;;;;;;;7.13;3.08;;;;;;;;;;5023072;28;20044;-66
2022/10/20 07:12:10;;;;;;;7.18;3.50;;;;;;;;;;5000945;28;20180;-66
2022/10/20 07:14:37;;;;;;;8.05;3.50;;;;;;;;;;5006811;28;20243;-66
2022/10/20 07:17:04;;;;;;;6.28;3.17;;;;;;;;;;5015515;28;20145;-66
2022/10/20 07:19:30;;;;;;;6.85;3.17;;;;;;;;;;5006060;28;20137;-66
2022/10/20 07:21:57;;;;;;;7.22;3.20;;;;;;;;;;4985078;28;20140;-66
2022/10/20 07:24:24;;;;;;;10.65;4.00;;;;;;;;;;5018969;28;20065;-65
2022/10/20 07:26:52;;;;;;;8.60;3.38;;;;;;;;;;5016847;28;20145;-66
2022/10/20 07:29:19;;;;;;;7.57;3.30;;;;;;;;;;5005429;28;20104;-66
2022/10/20 07:31:46;;;;;;;8.13;3.60;;;;;;;;;;5000389;28;20098;-65
2022/10/20 07:34:14;;;;;;;9.00;3.30;;;;;;;;;;5022118;28;20050;-66
2022/10/20 07:36:42;;;;;;;6.95;3.35;;;;;;;;;;5000809;28;20045;-66
2022/10/20 07:39:08;;;;;;;6.30;3.07;;;;;;;;;;5005615;28;20064;-65
2022/10/20 07:41:36;;;;;;;8.45;4.07;;;;;;;;;;5000967;28;20305;-66
2022/10/20 07:44:05;;;;;;;10.70;3.70;;;;;;;;;;5003191;28;20112;-65
2022/10/20 07:46:31;;;;;;;11.85;3.78;;;;;;;;;;4997809;28;20069;-66
2022/10/20 07:48:58;;;;;;;7.22;3.08;;;;;;;;;;5022125;28;20058;-66
2022/10/20 07:51:27;;;;;;;6.97;3.28;;;;;;;;;;5022702;28;20084;-66
2022/10/20 07:53:55;;;;;;;7.60;3.53;;;;;;;;;;4982439;28;20082;-66
2022/10/20 07:56:23;;;;;;;14.65;3.45;;;;;;;;;;5006316;28;20073;-66
2022/10/20 07:58:50;;;;;;;6.28;3.17;;;;;;;;;;5000246;28;20073;-66
2022/10/20 08:01:21;;;;;;;11.30;4.53;;;;;;;;;;5023136;28;20052;-66
2022/10/20 08:03:47;;;;;;;7.63;3.47;;;;;;;;;;5001647;28;20076;-66
2022/10/20 08:06:14;;;;;;;10.98;4.38;;;;;;;;;;5025192;28;20068;-66
2022/10/20 08:08:41;;;;;;;8.75;3.85;;;;;;;;;;5003129;28;20066;-66
2022/10/20 08:11:08;;;;;;;7.85;3.45;;;;;;;;;;5007003;28;20062;-66
2022/10/20 08:13:35;;;;;;;11.48;4.00;;;;;;;;;;5016221;28;20054;-66
2022/10/20 08:16:02;;;;;;;11.50;4.00;;;;;;;;;;5020891;28;20054;-66
2022/10/20 08:18:30;;;;;;;7.63;3.55;;;;;;;;;;4998477;28;20046;-66
2022/10/20 08:21:06;;;;;;;8.95;3.50;;;;;;;;;;5000949;28;20148;-66
2022/10/20 08:23:32;;;;;;;10.27;4.35;;;;;;;;;;5002418;28;20066;-65
2022/10/20 08:26:00;;;;;;;12.10;3.70;;;;;;;;;;5021258;28;20160;-65
2022/10/20 08:28:27;;;;;;;11.80;4.40;;;;;;;;;;4999046;28;20064;-66
2022/10/20 08:30:53;;;;;;;8.60;3.88;;;;;;;;;;5005517;28;20061;-66
2022/10/20 08:33:20;;;;;;;6.65;3.33;;;;;;;;;;5016747;28;20062;-66
2022/10/20 08:35:48;;;;;;;8.90;3.85;;;;;;;;;;5022177;28;20073;-66
2022/10/20 08:38:15;;;;;;;9.07;3.25;;;;;;;;;;5004589;28;20093;-66
2022/10/20 08:40:42;;;;;;;9.13;3.50;;;;;;;;;;4994939;28;20042;-66
2022/10/20 08:43:12;;;;;;;8.57;4.05;;;;;;;;;;4985889;28;20050;-66
2022/10/20 08:45:39;;;;;;;11.43;3.88;;;;;;;;;;4995611;28;20136;-66
2022/10/20 08:48:08;;;;;;;9.00;3.40;;;;;;;;;;5003357;28;20104;-66
2022/10/20 08:50:35;;;;;;;10.27;4.43;;;;;;;;;;5014956;28;20073;-66
2022/10/20 08:53:03;;;;;;;8.25;3.50;;;;;;;;;;5004287;28;20058;-66
2022/10/20 08:55:31;;;;;;;10.18;4.75;;;;;;;;;;4999371;28;20119;-66
2022/10/20 08:58:01;;;;;;;8.82;3.70;;;;;;;;;;4993401;28;20081;-66
2022/10/20 09:00:29;;;;;;;8.68;3.80;;;;;;;;;;4990748;28;20058;-65
2022/10/20 09:02:57;;;;;;;8.75;3.58;;;;;;;;;;5004478;28;20058;-65
2022/10/20 09:05:25;;;;;;;12.05;5.13;;;;;;;;;;5014956;28;20050;-65
2022/10/20 09:07:52;;;;;;;9.55;4.70;;;;;;;;;;5020523;28;20064;-65
2022/10/20 09:10:25;;;;;;;11.73;4.70;;;;;;;;;;5015668;28;20113;-65
2022/10/20 09:12:52;;;;;;;10.35;4.18;;;;;;;;;;5004336;28;20050;-65
2022/10/20 09:15:20;;;;;;;6.95;3.22;;;;;;;;;;4998560;28;20194;-65
2022/10/20 09:17:47;;;;;;;13.02;4.00;;;;;;;;;;5020983;28;20053;-65
2022/10/20 09:20:17;;;;;;;9.57;4.43;;;;;;;;;;5015788;28;20068;-65
2022/10/20 09:22:44;;;;;;;11.55;4.25;;;;;;;;;;5004693;28;20050;-65
2022/10/20 09:25:13;;;;;;;12.77;4.93;;;;;;;;;;5014449;28;20131;-65
2022/10/20 09:27:41;;;;;;;;;;;;;;;;;;5004276;28;20120;-65
2022/10/20 09:30:17;;;;;;;7.65;3.50;;;;;;;;;;5020815;28;19971;-65
2022/10/20 09:32:43;;;;;;;11.75;4.70;;;;;;;;;;5002460;28;20437;-65
2022/10/20 09:35:18;;;;;;;9.85;4.10;;;;;;;;;;5020513;28;20159;-65
2022/10/20 09:37:49;;;;;;;12.98;4.53;;;;;;;;;;5015845;28;20057;-64
2022/10/20 09:40:17;;;;;;;8.38;3.67;;;;;;;;;;5000268;28;20058;-65
2022/10/20 09:42:48;;;;;;;10.98;4.78;;;;;;;;;;4997874;28;20061;-64
2022/10/20 09:45:21;;;;;;;8.20;3.80;;;;;;;;;;5020488;28;20108;-65
2022/10/20 09:47:50;;;;;;;9.90;4.22;;;;;;;;;;5015126;28;20053;-64
2022/10/20 09:50:19;;;;;;;11.38;4.95;;;;;;;;;;5005491;28;20062;-65
2022/10/20 09:52:47;;;;;;;10.30;4.47;;;;;;;;;;5016600;28;20132;-65
2022/10/20 09:55:20;;;;;;;12.68;4.90;;;;;;;;;;5004855;28;20054;-65
2022/10/20 09:57:47;;;;;;;13.43;4.88;;;;;;;;;;5015688;28;20054;-65
2022/10/20 10:00:23;;;;;;;9.38;4.68;;;;;;;;;;5004315;28;20061;-65
2022/10/20 10:03:07;;;;;;;14.63;4.47;;;;;;;;;;4991614;28;20062;-65
2022/10/20 10:05:34;;;;;;;9.15;4.20;;;;;;;;;;5010644;28;20064;-65
2022/10/20 10:08:01;;;;;;;12.52;5.25;;;;;;;;;;5004403;28;20046;-64
2022/10/20 10:10:28;;;;;;;11.25;4.50;;;;;;;;;;4994006;28;20042;-65
2022/10/20 10:12:56;;;;;;;9.48;4.70;;;;;;;;;;4998751;28;20058;-64
2022/10/20 10:15:28;;;;;;;11.32;4.72;;;;;;;;;;5011783;28;20081;-65
2022/10/20 10:17:56;;;;;;;10.60;5.15;;;;;;;;;;4998800;28;20056;-65
2022/10/20 10:20:32;;;;;;;12.43;5.60;;;;;;;;;;5004439;28;20054;-65
2022/10/20 10:23:15;;;;;;;12.82;5.03;;;;;;;;;;4999804;28;20325;-64
2022/10/20 10:25:42;;;;;;;11.35;5.18;;;;;;;;;;4988105;28;20054;-65
2022/10/20 10:28:20;;;;;;;10.45;4.68;;;;;;;;;;4999995;28;20047;-64
2022/10/20 10:30:48;;;;;;;12.65;5.40;;;;;;;;;;4981649;28;20054;-67
2022/10/20 10:33:24;;;;;;;12.40;4.72;;;;;;;;;;4985394;28;20062;-64
2022/10/20 10:35:51;;;;;;;10.43;5.43;;;;;;;;;;5024486;28;20077;-65
2022/10/20 10:38:18;;;;;;;11.00;5.07;;;;;;;;;;4993254;28;20046;-64
2022/10/20 10:40:50;;;;;;;11.73;5.35;;;;;;;;;;5021630;28;20139;-65
2022/10/20 10:43:28;;;;;;;10.55;4.72;;;;;;;;;;4998345;28;20073;-64
2022/10/20 10:45:57;;;;;;;12.25;5.13;;;;;;;;;;4987207;28;20058;-65
2022/10/20 10:48:42;;;;;;;12.20;4.82;;;;;;;;;;4998526;28;20109;-64
2022/10/20 10:51:10;;;;;;;9.27;4.35;;;;;;;;;;4968597;28;20054;-65
2022/10/20 10:53:49;;;;;;;10.48;5.03;;;;;;;;;;4979544;28;20047;-65
2022/10/20 10:56:21;;;;;;;16.88;4.78;;;;;;;;;;5004301;28;20058;-64
2022/10/20 10:58:52;;;;;;;12.60;4.88;;;;;;;;;;4998308;28;20057;-65
2022/10/20 11:01:26;;;;;;;9.07;4.40;;;;;;;;;;4984168;28;20125;-64
2022/10/20 11:04:18;;;;;;;15.10;5.95;;;;;;;;;;4985157;28;20142;-64
2022/10/20 11:06:46;;;;;;;12.07;4.78;;;;;;;;;;4967403;28;20094;-64
2022/10/20 11:09:19;;;;;;;9.05;4.90;;;;;;;;;;4966695;28;20054;-64
2022/10/20 11:11:51;;;;;;;15.00;6.03;;;;;;;;;;4967810;28;20043;-65
2022/10/20 11:14:27;;;;;;;10.30;5.38;;;;;;;;;;4970733;28;20163;-65
2022/10/20 11:17:01;;;;;;;13.13;5.18;;;;;;;;;;4965564;28;20059;-65
2022/10/20 11:19:36;;;;;;;8.95;4.07;;;;;;;;;;5008062;28;20050;-65
2022/10/20 11:22:08;;;;;;;12.25;4.88;;;;;;;;;;5003453;28;20080;-64
2022/10/20 11:24:43;;;;;;;10.68;4.57;;;;;;;;;;4992234;28;20108;-65
2022/10/20 11:27:12;;;;;;;10.35;4.95;;;;;;;;;;5000972;28;20121;-64
2022/10/20 11:29:41;;;;;;;9.43;4.13;;;;;;;;;;4992911;28;20050;-64
2022/10/20 11:32:14;;;;;;;13.23;6.13;;;;;;;;;;5016805;28;20050;-64
2022/10/20 11:34:45;;;;;;;13.70;6.10;;;;;;;;;;5016102;28;20061;-64
2022/10/20 11:37:15;;;;;;;15.65;5.82;;;;;;;;;;5012150;28;20057;-64
2022/10/20 11:39:43;;;;;;;9.32;4.20;;;;;;;;;;5021881;28;20054;-64
2022/10/20 11:42:17;;;;;;;10.50;4.63;;;;;;;;;;5007049;28;20045;-64
2022/10/20 11:44:46;;;;;;;10.85;4.90;;;;;;;;;;5022146;28;20112;-64
2022/10/20 11:47:16;;;;;;;12.88;5.00;;;;;;;;;;4987267;28;20061;-64
2022/10/20 11:49:43;;;;;;;10.00;4.95;;;;;;;;;;4991684;28;20077;-64
2022/10/20 11:52:40;;;;;;;12.27;5.15;;;;;;;;;;5016088;28;20124;-65
2022/10/20 11:55:20;;;;;;;10.20;4.45;;;;;;;;;;5021894;28;20050;-64
2022/10/20 11:57:56;;;;;;;11.15;5.28;;;;;;;;;;5016001;28;20049;-64
2022/10/20 12:00:32;;;;;;;10.57;5.20;;;;;;;;;;5004571;28;20056;-64
2022/10/20 12:03:22;;;;;;;8.18;4.25;;;;;;;;;;5016776;28;20045;-64
2022/10/20 12:06:07;;;;;;;9.20;4.60;;;;;;;;;;5022390;28;20046;-64
2022/10/20 12:08:52;;;;;;;10.73;5.07;;;;;;;;;;4982107;28;20104;-64
2022/10/20 12:11:26;;;;;;;11.85;4.90;;;;;;;;;;5005632;28;20046;-65
2022/10/20 12:13:57;;;;;;;12.82;4.43;;;;;;;;;;5004478;28;20121;-64
2022/10/20 12:16:42;;;;;;;9.65;4.45;;;;;;;;;;4985122;28;20133;-64
2022/10/20 12:19:15;;;;;;;9.85;5.03;;;;;;;;;;4996702;28;20054;-64
2022/10/20 12:21:56;;;;;;;10.40;4.93;;;;;;;;;;4980556;28;20077;-64
2022/10/20 12:24:30;;;;;;;11.48;5.28;;;;;;;;;;4983644;28;20050;-64
2022/10/20 12:27:11;;;;;;;10.98;5.63;;;;;;;;;;5020727;28;20061;-64
2022/10/20 12:29:53;;;;;;;11.77;5.28;;;;;;;;;;5019350;28;20050;-64
2022/10/20 12:32:23;;;;;;;15.13;5.40;;;;;;;;;;5008590;28;20060;-64
2022/10/20 12:34:51;;;;;;;13.02;5.82;;;;;;;;;;4998789;28;20050;-64
2022/10/20 12:37:19;;;;;;;11.80;4.60;;;;;;;;;;4991361;28;20057;-65
2022/10/20 12:39:46;;;;;;;11.73;5.50;;;;;;;;;;5016044;28;20104;-64
2022/10/20 12:42:19;;;;;;;14.07;5.88;;;;;;;;;;5022646;28;20037;-64
2022/10/20 12:44:46;;;;;;;12.05;5.25;;;;;;;;;;4999745;28;20108;-64
2022/10/20 12:47:18;;;;;;;11.50;5.30;;;;;;;;;;5006155;28;20053;-64
2022/10/20 12:49:51;;;;;;;10.00;5.20;;;;;;;;;;5000498;28;20081;-65
2022/10/20 12:52:19;;;;;;;12.13;4.88;;;;;;;;;;5023809;28;20054;-65
2022/10/20 12:54:46;;;;;;;9.77;4.53;;;;;;;;;;5002576;28;20058;-65
2022/10/20 12:57:34;;;;;;;13.55;5.55;;;;;;;;;;5007326;28;20058;-65
2022/10/20 13:00:00;;;;;;;11.45;4.75;;;;;;;;;;5017540;28;20049;-64
2022/10/20 13:02:32;;;;;;;10.35;5.35;;;;;;;;;;5005819;28;20053;-65
2022/10/20 13:05:00;;;;;;;11.52;4.95;;;;;;;;;;4999593;28;20085;-65
2022/10/20 13:07:46;;;;;;;9.73;4.60;;;;;;;;;;5020733;28;20108;-65
2022/10/20 13:10:28;;;;;;;9.55;4.85;;;;;;;;;;4999775;28;20305;-65
2022/10/20 13:13:15;;;;;;;11.48;4.95;;;;;;;;;;5003872;28;20058;-65
2022/10/20 13:15:44;;;;;;;14.07;4.80;;;;;;;;;;5016847;28;20064;-65
2022/10/20 13:18:18;;;;;;;11.07;4.97;;;;;;;;;;5021756;28;20057;-64
2022/10/20 13:20:46;;;;;;;14.27;5.30;;;;;;;;;;5000032;28;20061;-65
2022/10/20 13:23:13;;;;;;;11.65;5.28;;;;;;;;;;5021216;28;20116;-65
2022/10/20 13:25:43;;;;;;;11.80;5.53;;;;;;;;;;5014930;28;20064;-64
2022/10/20 13:28:18;;;;;;;14.57;5.88;;;;;;;;;;5020884;28;20050;-65
2022/10/20 13:31:04;;;;;;;11.65;5.10;;;;;;;;;;4990509;28;20058;-65
2022/10/20 13:33:35;;;;;;;13.23;5.80;;;;;;;;;;5011749;28;20053;-65
2022/10/20 13:36:05;;;;;;;11.60;5.60;;;;;;;;;;4998644;28;20056;-64
2022/10/20 13:38:35;;;;;;;10.52;5.05;;;;;;;;;;4991118;28;20054;-65
2022/10/20 13:41:04;;;;;;;12.38;4.63;;;;;;;;;;4978622;28;20054;-65
2022/10/20 13:43:36;;;;;;;9.57;4.82;;;;;;;;;;4985548;28;20140;-65
2022/10/20 13:46:21;;;;;;;9.90;5.00;;;;;;;;;;4994671;28;20062;-65
2022/10/20 13:49:07;;;;;;;14.25;6.20;;;;;;;;;;5004794;28;20073;-65
2022/10/20 13:51:38;;;;;;;11.02;5.32;;;;;;;;;;4981267;28;20065;-64
2022/10/20 13:54:06;;;;;;;10.23;4.80;;;;;;;;;;4969121;28;20057;-65
2022/10/20 13:56:34;;;;;;;11.68;6.10;;;;;;;;;;4983888;28;20050;-65
2022/10/20 13:59:02;;;;;;;10.63;5.25;;;;;;;;;;4968449;28;20069;-65
2022/10/20 14:01:29;;;;;;;13.57;5.50;;;;;;;;;;4975764;28;20121;-65
2022/10/20 14:03:56;;;;;;;13.20;5.60;;;;;;;;;;5004259;28;20321;-64
2022/10/20 14:06:32;;;;;;;13.80;6.15;;;;;;;;;;4982271;28;20055;-65
2022/10/20 14:08:59;;;;;;;21.48;6.50;;;;;;;;;;5004230;28;20100;-65
2022/10/20 14:11:30;;;;;;;11.50;5.55;;;;;;;;;;4996538;28;20053;-64
2022/10/20 14:13:58;;;;;;;13.77;5.47;;;;;;;;;;5002391;28;20112;-65
2022/10/20 14:16:27;;;;;;;11.50;5.63;;;;;;;;;;4990359;28;20125;-66
2022/10/20 14:19:00;;;;;;;14.68;6.45;;;;;;;;;;5022827;28;20049;-65
2022/10/20 14:21:27;;;;;;;13.40;6.63;;;;;;;;;;5007465;28;20104;-64
2022/10/20 14:23:57;;;;;;;15.25;5.75;;;;;;;;;;5018603;28;20116;-65
2022/10/20 14:26:24;;;;;;;9.80;4.95;;;;;;;;;;4999172;28;20116;-65
2022/10/20 14:28:52;;;;;;;10.87;5.43;;;;;;;;;;4991542;28;20058;-65
2022/10/20 14:31:21;;;;;;;10.43;5.13;;;;;;;;;;5007832;28;20140;-65
2022/10/20 14:33:48;;;;;;;13.65;5.88;;;;;;;;;;5002026;28;20111;-65
2022/10/20 14:36:18;;;;;;;13.50;6.50;;;;;;;;;;5006805;28;20045;-64
2022/10/20 14:38:46;;;;;;;15.30;6.20;;;;;;;;;;4991489;28;20054;-65
2022/10/20 14:41:23;;;;;;;11.30;5.47;;;;;;;;;;4998560;28;20076;-65
2022/10/20 14:43:52;;;;;;;10.90;5.28;;;;;;;;;;5001336;28;20056;-64
2022/10/20 14:46:24;;;;;;;17.85;6.68;;;;;;;;;;4993540;28;20050;-65
2022/10/20 14:48:50;;;;;;;19.33;7.15;;;;;;;;;;5012719;28;20042;-64
2022/10/20 14:51:33;;;;;;;12.23;6.60;;;;;;;;;;5023421;28;20046;-64